Time;durP1;ratioP1;P1;durP2;ratioP2;P2;SDS_P1;SDS_P2;PMS_P1;PMS_P2;Temp;Humidity;BMP_temperature;BMP_pressure;BME280_temperature;BME280_humidity;BME280_pressure;Samples;Min_cycle;Max_cycle;Signal;HPM_P1;HPM_P2
2022/05/26 00:01:11;;;;;;;1.95;0.85;;;;;;;16.70;45.35;99237.91;2623123;39;20443;-67
2022/05/26 00:03:50;;;;;;;1.20;0.80;;;;;;;16.65;45.56;99235.88;2622698;54;20061;-65
2022/05/26 00:06:21;;;;;;;1.08;0.80;;;;;;;16.67;45.65;99241.03;2622834;54;20025;-65
2022/05/26 00:08:52;;;;;;;0.75;0.75;;;;;;;16.66;45.75;99242.06;2622501;54;20046;-65
2022/05/26 00:11:25;;;;;;;2.45;1.02;;;;;;;16.65;45.75;99232.41;2622562;54;20055;-65
2022/05/26 00:13:55;;;;;;;1.67;0.85;;;;;;;16.63;45.81;99237.97;2622718;54;20034;-66
2022/05/26 00:16:25;;;;;;;2.75;0.90;;;;;;;16.58;46.04;99232.50;2622243;54;20550;-66
2022/05/26 00:18:58;;;;;;;2.25;1.20;;;;;;;16.56;46.31;99235.38;2621875;47;20098;-65
2022/05/26 00:21:27;;;;;;;3.05;0.98;;;;;;;16.52;46.02;99234.19;2623390;39;20451;-65
2022/05/26 00:23:57;;;;;;;2.17;1.10;;;;;;;16.53;46.51;99243.84;2622156;47;20045;-66
2022/05/26 00:26:27;;;;;;;1.83;0.73;;;;;;;16.50;46.14;99241.59;2622990;54;20065;-67
2022/05/26 00:28:57;;;;;;;2.22;0.90;;;;;;;16.49;46.27;99244.47;2623199;39;20426;-65
2022/05/26 00:31:27;;;;;;;2.45;0.90;;;;;;;16.48;46.44;99241.00;2622449;54;20106;-65
2022/05/26 00:33:59;;;;;;;2.05;1.02;;;;;;;16.49;46.47;99244.47;2622895;54;20029;-65
2022/05/26 00:36:42;;;;;;;1.67;0.90;;;;;;;16.52;46.64;99244.84;2622306;54;20022;-65
2022/05/26 00:39:14;;;;;;;2.78;0.90;;;;;;;16.57;46.49;99252.19;2621420;54;20575;-65
2022/05/26 00:41:48;;;;;;;2.92;0.80;;;;;;;16.55;46.32;99246.28;2620682;47;20041;-66
2022/05/26 00:44:18;;;;;;;3.25;0.82;;;;;;;16.50;45.99;99252.28;2622148;39;20470;-66
2022/05/26 00:46:52;;;;;;;8.77;1.05;;;;;;;16.52;46.05;99249.38;2621078;54;20038;-65
2022/05/26 00:49:28;;;;;;;1.73;0.80;;;;;;;16.45;46.23;99253.94;2620845;54;20059;-65
2022/05/26 00:51:58;;;;;;;2.88;0.80;;;;;;;16.39;46.07;99254.84;2621694;39;20435;-66
2022/05/26 00:54:28;;;;;;;1.05;0.80;;;;;;;16.42;46.32;99254.41;2621248;54;20045;-66
2022/05/26 00:57:04;;;;;;;0.73;0.70;;;;;;;16.47;46.12;99257.22;2621339;54;20539;-66
2022/05/26 00:59:42;;;;;;;2.30;0.85;;;;;;;16.43;46.40;99254.19;2621459;54;20037;-65
2022/05/26 01:02:13;;;;;;;1.65;1.02;;;;;;;16.44;46.29;99255.00;2621211;54;20078;-65
2022/05/26 01:04:51;;;;;;;1.52;1.05;;;;;;;16.45;46.24;99256.63;2620140;47;20023;-65
2022/05/26 01:07:25;;;;;;;1.35;1.00;;;;;;;16.45;46.45;99252.13;2620789;54;20014;-65
2022/05/26 01:09:55;;;;;;;2.83;0.82;;;;;;;16.39;46.49;99254.84;2620747;54;20038;-65
2022/05/26 01:12:26;;;;;;;2.13;1.10;;;;;;;16.34;46.64;99248.31;2620407;54;20034;-65
2022/05/26 01:14:59;;;;;;;3.22;0.90;;;;;;;16.36;46.70;99250.75;2621078;54;20030;-65
2022/05/26 01:17:40;;;;;;;1.73;0.88;;;;;;;16.34;46.93;99261.66;2621204;54;20535;-66
2022/05/26 01:20:36;;;;;;;1.60;0.82;;;;;;;16.36;46.87;99256.09;2621688;47;20045;-65
2022/05/26 01:23:53;;;;;;;2.40;0.90;;;;;;;16.37;46.71;99264.91;2622451;54;20565;-65
2022/05/26 01:26:54;;;;;;;1.42;0.85;;;;;;;16.33;47.04;99264.56;2622129;54;20034;-65
2022/05/26 01:29:56;;;;;;;1.50;0.80;;;;;;;16.33;47.11;99262.69;2622067;47;20030;-65
2022/05/26 01:32:39;;;;;;;1.20;0.73;;;;;;;16.35;47.52;99265.94;2622702;54;20038;-65
2022/05/26 01:35:16;;;;;;;2.38;1.00;;;;;;;16.32;47.23;99258.38;2622595;54;20018;-64
2022/05/26 01:37:58;;;;;;;3.40;0.80;;;;;;;16.29;47.29;99266.84;2622293;39;20462;-64
2022/05/26 01:40:34;;;;;;;1.05;0.75;;;;;;;16.28;47.40;99267.84;2622254;54;20546;-66
2022/05/26 01:43:11;;;;;;;2.72;0.80;;;;;;;16.23;47.51;99270.34;2622141;54;20034;-66
2022/05/26 01:45:48;;;;;;;1.83;0.80;;;;;;;16.16;47.78;99261.59;2622443;54;20027;-65
2022/05/26 01:48:26;;;;;;;5.00;0.90;;;;;;;16.16;48.46;99271.44;2622212;54;20558;-67
2022/05/26 01:51:00;;;;;;;2.38;0.77;;;;;;;16.11;48.39;99274.75;2622513;54;20042;-66
2022/05/26 01:53:37;;;;;;;3.63;0.90;;;;;;;16.11;48.40;99261.44;2622318;54;20034;-65
2022/05/26 01:56:14;;;;;;;0.80;0.68;;;;;;;16.05;48.66;99263.13;2622818;54;20027;-65
2022/05/26 01:58:48;;;;;;;1.08;0.60;;;;;;;16.05;48.86;99259.66;2625656;54;20050;-65
2022/05/26 02:01:22;;;;;;;2.28;0.85;;;;;;;16.03;49.01;99267.03;2625044;54;20061;-65
2022/05/26 02:03:56;;;;;;;2.08;1.20;;;;;;;16.03;49.06;99273.16;2624932;54;20110;-65
2022/05/26 02:06:31;;;;;;;2.95;0.88;;;;;;;16.06;49.09;99269.28;2622573;54;20018;-65
2022/05/26 02:09:04;;;;;;;3.50;0.80;;;;;;;16.08;49.28;99270.69;2621549;54;20026;-65
2022/05/26 02:11:36;;;;;;;1.98;0.73;;;;;;;16.09;48.99;99263.50;2621766;46;20058;-65
2022/05/26 02:14:11;;;;;;;2.95;1.10;;;;;;;16.12;49.33;99267.56;2622587;54;20030;-65
2022/05/26 02:16:48;;;;;;;0.80;0.80;;;;;;;16.04;49.52;99271.31;2622364;54;20031;-65
2022/05/26 02:19:24;;;;;;;2.30;0.82;;;;;;;15.99;49.76;99273.81;2622197;54;20037;-65
2022/05/26 02:22:04;;;;;;;1.45;0.85;;;;;;;15.94;50.36;99271.81;2622980;39;20408;-65
2022/05/26 02:24:39;;;;;;;1.67;0.90;;;;;;;15.93;50.19;99277.38;2622863;54;20034;-65
2022/05/26 02:27:09;;;;;;;1.73;1.00;;;;;;;15.93;49.98;99269.38;2622299;54;20045;-65
2022/05/26 02:29:55;;;;;;;2.58;0.90;;;;;;;15.96;50.24;99271.59;2622487;54;20046;-66
2022/05/26 02:32:38;;;;;;;1.95;0.82;;;;;;;15.92;50.57;99265.06;2622594;54;20042;-66
2022/05/26 02:35:14;;;;;;;2.80;0.70;;;;;;;15.86;51.04;99274.75;2622395;54;20531;-66
2022/05/26 02:37:45;;;;;;;2.50;0.82;;;;;;;15.79;51.41;99280.09;2623047;39;20422;-65
2022/05/26 02:40:16;;;;;;;0.93;0.70;;;;;;;15.76;51.73;99274.41;2622561;54;20038;-66
2022/05/26 02:42:48;;;;;;;2.28;0.80;;;;;;;15.74;51.39;99276.44;2621431;54;20550;-65
2022/05/26 02:45:28;;;;;;;2.92;0.68;;;;;;;15.76;51.76;99279.75;2622129;54;20031;-65
2022/05/26 02:48:05;;;;;;;1.23;0.70;;;;;;;15.73;51.46;99282.81;2621686;54;20030;-65
2022/05/26 02:50:50;;;;;;;5.70;1.33;;;;;;;15.67;52.10;99289.81;2623091;54;20034;-65
2022/05/26 02:53:24;;;;;;;0.95;0.80;;;;;;;15.59;52.25;99290.03;2622495;47;20030;-65
2022/05/26 02:56:06;;;;;;;1.30;0.75;;;;;;;15.51;52.77;99287.59;2623956;54;20045;-65
2022/05/26 02:58:48;;;;;;;3.28;0.80;;;;;;;15.47;52.81;99292.56;2623315;54;20043;-66
2022/05/26 03:01:25;;;;;;;2.70;0.80;;;;;;;15.47;52.60;99295.22;2620983;54;20042;-65
2022/05/26 03:04:02;;;;;;;3.85;1.17;;;;;;;15.54;52.62;99295.19;2620009;54;20536;-65
2022/05/26 03:06:39;;;;;;;0.93;0.75;;;;;;;15.53;52.99;99291.72;2619289;54;20049;-66
2022/05/26 03:09:10;;;;;;;1.83;0.68;;;;;;;15.49;53.39;99282.50;2619817;54;20038;-65
2022/05/26 03:11:47;;;;;;;1.90;1.02;;;;;;;15.42;53.46;99295.03;2620024;54;20030;-65
2022/05/26 03:14:17;;;;;;;3.45;0.80;;;;;;;15.40;53.41;99285.63;2619477;47;20519;-65
2022/05/26 03:16:47;;;;;;;4.03;0.90;;;;;;;15.42;53.75;99294.22;2623540;54;20030;-65
2022/05/26 03:19:17;;;;;;;3.33;0.85;;;;;;;15.37;54.14;99294.84;2623941;54;20030;-65
2022/05/26 03:21:50;;;;;;;3.28;0.90;;;;;;;15.35;53.89;99294.25;2624001;54;20030;-65
2022/05/26 03:24:20;;;;;;;1.70;0.80;;;;;;;15.38;54.26;99293.00;2624326;54;20038;-65
2022/05/26 03:26:49;;;;;;;2.03;1.35;;;;;;;15.32;54.13;99295.50;2621721;54;20037;-65
2022/05/26 03:29:19;;;;;;;4.78;0.90;;;;;;;15.32;54.19;99300.81;2622126;51;20049;-66
2022/05/26 03:31:48;;;;;;;2.00;0.77;;;;;;;15.25;54.92;99289.38;2623005;54;20137;-65
2022/05/26 03:42:28;;;;;;;2.60;1.00;;;;;;;15.38;54.70;99293.00;2622821;54;20042;-65
2022/05/26 03:45:00;;;;;;;0.95;0.80;;;;;;;15.31;54.97;99299.19;2620430;54;20030;-65
2022/05/26 03:47:30;;;;;;;2.15;0.98;;;;;;;15.28;54.85;99306.78;2620060;54;20038;-65
2022/05/26 03:50:00;;;;;;;1.33;0.93;;;;;;;15.25;55.08;99305.34;2620427;54;20033;-65
2022/05/26 03:52:32;;;;;;;3.63;1.23;;;;;;;15.22;55.33;99308.41;2620595;54;20026;-65
2022/05/26 03:55:02;;;;;;;1.27;1.00;;;;;;;15.22;55.55;99313.75;2621938;54;20030;-65
2022/05/26 03:57:32;;;;;;;2.75;0.98;;;;;;;15.24;55.80;99308.22;2622991;54;20041;-66
2022/05/26 04:00:03;;;;;;;3.33;1.27;;;;;;;15.23;55.53;99310.06;2623800;54;20034;-66
2022/05/26 04:02:40;;;;;;;2.35;1.30;;;;;;;15.23;55.82;99318.06;2624674;39;20451;-65
2022/05/26 04:05:12;;;;;;;1.38;1.10;;;;;;;15.25;55.97;99326.66;2623530;47;20543;-65
2022/05/26 04:07:45;;;;;;;2.88;1.00;;;;;;;15.33;55.62;99325.59;2622941;47;20042;-65
2022/05/26 04:10:15;;;;;;;2.92;0.85;;;;;;;15.44;55.59;99324.94;2623786;54;20038;-65
2022/05/26 04:12:45;;;;;;;0.90;0.88;;;;;;;15.50;55.60;99329.41;2622911;54;20136;-66
2022/05/26 04:15:16;;;;;;;1.38;0.80;;;;;;;15.58;55.53;99337.19;2623181;54;20026;-65
2022/05/26 04:17:46;;;;;;;2.35;0.93;;;;;;;15.64;55.29;99332.88;2622543;54;20046;-65
2022/05/26 04:20:19;;;;;;;2.67;1.30;;;;;;;15.62;55.27;99326.91;2622323;54;20146;-65
2022/05/26 04:22:52;;;;;;;2.15;1.10;;;;;;;15.64;55.59;99338.19;2622589;54;20026;-65
2022/05/26 04:25:22;;;;;;;3.47;1.25;;;;;;;15.67;55.02;99336.97;2621168;54;20114;-65
2022/05/26 04:27:53;;;;;;;3.40;1.20;;;;;;;15.76;55.45;99343.72;2622606;54;20034;-70
2022/05/26 04:30:24;;;;;;;6.18;1.40;;;;;;;15.76;55.24;99341.84;2622388;54;20038;-65
2022/05/26 04:32:54;;;;;;;1.63;1.17;;;;;;;15.74;55.17;99348.41;2622834;54;20018;-65
2022/05/26 04:35:23;;;;;;;4.70;1.00;;;;;;;15.71;55.68;99354.16;2624401;54;20014;-64
2022/05/26 04:37:55;;;;;;;2.55;1.15;;;;;;;15.58;55.77;99345.16;2624694;54;20037;-65
2022/05/26 04:40:25;;;;;;;2.35;1.50;;;;;;;15.65;56.02;99347.84;2624851;46;20026;-65
2022/05/26 04:42:55;;;;;;;4.18;1.35;;;;;;;15.72;55.59;99353.16;2623739;54;20034;-65
2022/05/26 04:45:25;;;;;;;1.33;0.88;;;;;;;15.76;56.05;99357.03;2623136;54;20046;-65
2022/05/26 04:47:54;;;;;;;2.80;1.08;;;;;;;15.84;55.54;99354.94;2623145;54;20038;-66
2022/05/26 04:50:24;;;;;;;2.15;1.10;;;;;;;15.98;55.52;99353.00;2621802;39;20727;-64
2022/05/26 04:52:56;;;;;;;4.43;1.23;;;;;;;16.00;55.36;99353.63;2621060;54;20027;-65
2022/05/26 04:55:26;;;;;;;2.28;1.10;;;;;;;15.96;55.37;99356.91;2621126;54;20547;-64
2022/05/26 04:57:56;;;;;;;3.42;1.13;;;;;;;16.01;55.14;99354.44;2620775;54;20539;-65
2022/05/26 05:00:25;;;;;;;3.10;1.27;;;;;;;16.13;55.38;99350.06;2619960;47;20029;-64
2022/05/26 05:02:56;;;;;;;3.03;0.90;;;;;;;16.18;55.13;99355.56;2621012;54;20030;-65
2022/05/26 05:05:26;;;;;;;2.90;1.30;;;;;;;16.29;54.85;99360.22;2621767;31;20508;-65
2022/05/26 05:07:58;;;;;;;3.65;1.30;;;;;;;16.42;55.20;99369.16;2620867;54;20026;-65
2022/05/26 05:10:27;;;;;;;2.45;0.90;;;;;;;16.41;54.80;99363.00;2620707;54;20033;-64
2022/05/26 05:12:59;;;;;;;4.05;1.00;;;;;;;16.43;54.57;99368.09;2620125;54;20026;-65
2022/05/26 05:15:34;;;;;;;3.55;1.02;;;;;;;16.29;55.11;99362.06;2620489;54;20045;-65
2022/05/26 05:18:04;;;;;;;2.85;1.40;;;;;;;16.22;55.22;99375.44;2620293;54;20519;-66
2022/05/26 05:20:35;;;;;;;2.40;0.98;;;;;;;16.16;55.73;99378.13;2620348;54;20590;-67
2022/05/26 05:23:11;;;;;;;5.10;1.10;;;;;;;16.19;55.51;99385.72;2620498;54;20019;-65
2022/05/26 05:25:44;;;;;;;4.68;1.38;;;;;;;16.19;55.50;99391.84;2620208;54;20042;-65
2022/05/26 05:28:21;;;;;;;10.82;1.23;;;;;;;16.19;55.89;99397.19;2620382;54;20039;-66
2022/05/26 05:30:55;;;;;;;4.30;1.10;;;;;;;16.19;55.64;99399.03;2620428;54;20029;-65
2022/05/26 05:33:31;;;;;;;2.75;1.30;;;;;;;16.17;56.09;99399.28;2620467;54;20030;-64
2022/05/26 05:36:08;;;;;;;2.33;1.00;;;;;;;16.15;56.19;99403.16;2619775;54;20070;-65
2022/05/26 05:38:43;;;;;;;3.03;1.10;;;;;;;16.16;55.97;99402.13;2620713;54;20038;-64
2022/05/26 05:41:13;;;;;;;9.70;1.30;;;;;;;16.28;55.96;99403.09;2620136;54;20034;-66
2022/05/26 05:43:44;;;;;;;3.75;1.73;;;;;;;16.43;55.50;99392.13;2620581;54;20034;-65
2022/05/26 05:46:14;;;;;;;7.45;1.60;;;;;;;16.41;55.77;99399.50;2620191;54;20022;-65
2022/05/26 05:48:45;;;;;;;2.92;1.58;;;;;;;16.39;55.88;99404.25;2621493;31;20503;-66
2022/05/26 05:51:15;;;;;;;2.08;1.20;;;;;;;16.31;55.93;99410.66;2620428;54;20074;-67
2022/05/26 05:53:47;;;;;;;5.22;1.55;;;;;;;16.19;56.21;99412.38;2621588;54;20077;-66
2022/05/26 05:56:16;;;;;;;2.13;1.50;;;;;;;16.21;56.35;99416.47;2621563;54;20078;-66
2022/05/26 05:58:46;;;;;;;2.72;1.23;;;;;;;16.24;55.90;99421.38;2621469;39;20321;-67
2022/05/26 06:01:16;;;;;;;1.58;1.20;;;;;;;16.25;56.40;99425.69;2621044;47;20030;-67
2022/05/26 06:03:46;;;;;;;3.30;1.33;;;;;;;16.33;55.82;99424.63;2621718;54;20046;-66
2022/05/26 06:06:16;;;;;;;5.55;1.50;;;;;;;16.34;56.01;99427.06;2621475;54;20021;-68
2022/05/26 06:08:48;;;;;;;3.03;1.27;;;;;;;16.46;56.13;99421.88;2621250;54;20030;-66
2022/05/26 06:11:18;;;;;;;2.47;1.13;;;;;;;16.48;55.92;99426.97;2621020;54;20030;-66
2022/05/26 06:13:48;;;;;;;1.58;1.10;;;;;;;16.41;55.68;99423.53;2621318;54;20027;-65
2022/05/26 06:16:17;;;;;;;4.07;1.20;;;;;;;16.45;56.26;99422.91;2620991;54;20046;-65
2022/05/26 06:18:49;;;;;;;3.30;1.20;;;;;;;16.48;55.97;99432.31;2621042;54;20038;-66
2022/05/26 06:21:18;;;;;;;4.55;1.25;;;;;;;16.49;55.79;99429.44;2620990;54;20037;-65
2022/05/26 06:23:51;;;;;;;3.05;1.15;;;;;;;16.61;55.59;99437.56;2622240;54;20030;-68
2022/05/26 06:26:21;;;;;;;5.35;1.33;;;;;;;16.74;55.51;99444.72;2622241;54;20034;-66
2022/05/26 06:31:38;;;;;;;2.42;0.98;;;;;;;16.81;55.39;99443.59;2621391;54;20046;-65
2022/05/26 06:39:36;;;;;;;2.90;0.98;;;;;;;17.15;54.45;99446.81;2622218;54;20547;-66
2022/05/26 06:42:10;;;;;;;1.77;1.25;;;;;;;17.09;54.14;99453.03;2622916;54;20790;-66
2022/05/26 06:44:43;;;;;;;7.53;5.13;;;;;;;17.22;54.35;99442.22;2623197;54;20030;-65
2022/05/26 06:47:15;;;;;;;3.08;1.92;;;;;;;17.21;53.79;99456.63;2621674;47;20038;-65
2022/05/26 06:49:45;;;;;;;4.10;2.00;;;;;;;17.22;54.12;99457.44;2621966;54;20034;-66
2022/05/26 06:52:16;;;;;;;1.95;1.00;;;;;;;17.22;53.97;99455.56;2622396;54;20034;-66
2022/05/26 06:54:49;;;;;;;1.65;1.00;;;;;;;17.41;53.63;99467.13;2622131;39;20399;-65
2022/05/26 06:57:19;;;;;;;3.47;0.82;;;;;;;17.38;53.96;99472.09;2621700;54;20027;-67
2022/05/26 06:59:49;;;;;;;5.20;1.30;;;;;;;17.29;54.01;99479.56;2621946;54;20038;-66
2022/05/26 07:02:19;;;;;;;2.60;1.00;;;;;;;17.34;54.04;99477.06;2623514;31;20516;-65
2022/05/26 07:04:49;;;;;;;1.83;1.05;;;;;;;17.40;53.56;99470.84;2623862;54;20030;-66
2022/05/26 07:07:25;;;;;;;1.42;1.02;;;;;;;17.41;53.85;99475.16;2625771;54;20026;-67
2022/05/26 07:09:58;;;;;;;5.05;1.67;;;;;;;17.47;53.54;99478.78;2626285;54;20078;-65
2022/05/26 07:12:33;;;;;;;2.25;1.60;;;;;;;17.56;53.88;99477.47;2624385;54;20138;-66
2022/05/26 07:15:03;;;;;;;3.92;2.05;;;;;;;17.62;53.52;99484.59;2622361;54;20034;-67
2022/05/26 07:17:33;;;;;;;2.28;1.20;;;;;;;17.67;53.16;99479.38;2621110;54;20038;-65
2022/05/26 07:20:03;;;;;;;5.32;1.20;;;;;;;17.72;53.68;99487.59;2621815;54;20577;-67
2022/05/26 07:22:33;;;;;;;2.80;1.65;;;;;;;17.76;52.99;99483.47;2620811;47;20038;-66
2022/05/26 07:25:07;;;;;;;2.55;1.77;;;;;;;17.64;53.59;99487.88;2619766;54;20040;-66
2022/05/26 07:27:37;;;;;;;7.97;2.13;;;;;;;17.45;54.11;99491.56;2619755;54;20046;-66
2022/05/26 07:30:10;;;;;;;3.38;1.83;;;;;;;17.46;54.11;99490.50;2619844;54;20027;-68
2022/05/26 07:32:39;;;;;;;2.55;1.80;;;;;;;17.49;54.33;99496.25;2619899;54;20030;-66
2022/05/26 07:35:12;;;;;;;3.70;1.70;;;;;;;17.44;54.10;99495.28;2618595;46;20026;-67
2022/05/26 07:43:16;;;;;;;4.32;1.55;;;;;;;17.14;55.28;99495.94;2619283;54;20023;-67
2022/05/26 07:45:47;;;;;;;4.03;1.50;;;;;;;17.06;55.10;99499.72;2619369;54;20029;-68
2022/05/26 07:48:16;;;;;;;1.48;1.05;;;;;;;17.18;55.53;99497.13;2620341;54;20051;-66
2022/05/26 07:50:46;;;;;;;2.72;1.48;;;;;;;17.26;55.08;99502.19;2622569;39;20459;-68
2022/05/26 07:53:15;;;;;;;4.60;1.25;;;;;;;17.37;55.28;99499.84;2620895;54;20034;-66
2022/05/26 07:55:48;;;;;;;2.47;1.27;;;;;;;17.46;54.73;99494.00;2621358;54;20048;-68
2022/05/26 07:58:17;;;;;;;1.83;1.38;;;;;;;17.50;54.97;99505.88;2619175;54;20047;-66
2022/05/26 08:00:48;;;;;;;1.38;1.10;;;;;;;17.38;54.64;99514.84;2621274;39;20435;-65
2022/05/26 08:03:18;;;;;;;2.47;1.20;;;;;;;17.43;55.29;99512.31;2620509;54;20039;-67
2022/05/26 08:05:47;;;;;;;2.35;1.20;;;;;;;17.45;54.83;99516.44;2621176;54;20022;-65
2022/05/26 08:08:18;;;;;;;5.38;1.55;;;;;;;17.49;55.38;99514.94;2621306;39;20423;-68
2022/05/26 08:10:50;;;;;;;3.88;1.33;;;;;;;17.66;55.13;99515.19;2620971;39;20440;-66
2022/05/26 08:13:19;;;;;;;2.30;1.33;;;;;;;17.87;54.44;99521.19;2620448;54;20555;-66
2022/05/26 08:15:49;;;;;;;4.85;1.60;;;;;;;17.88;54.56;99529.00;2620545;39;20444;-66
2022/05/26 08:18:19;;;;;;;2.88;1.70;;;;;;;18.09;54.05;99517.03;2620985;39;20455;-66
2022/05/26 08:20:49;;;;;;;3.65;1.70;;;;;;;18.17;53.47;99527.44;2620110;39;20435;-66
2022/05/26 08:23:23;;;;;;;5.32;1.55;;;;;;;18.28;53.31;99532.00;2619848;54;20069;-65
2022/05/26 08:25:55;;;;;;;2.63;1.40;;;;;;;18.35;53.15;99526.59;2621031;31;20467;-65
2022/05/26 08:28:25;;;;;;;2.92;2.10;;;;;;;18.43;53.35;99528.13;2620568;54;20034;-66
2022/05/26 08:30:55;;;;;;;2.88;1.77;;;;;;;18.41;52.78;99533.72;2620200;54;20567;-65
2022/05/26 08:33:25;;;;;;;3.22;2.00;;;;;;;18.61;52.74;99528.09;2619695;54;20046;-64
2022/05/26 08:36:03;;;;;;;3.90;1.92;;;;;;;18.80;52.52;99532.38;2620467;54;20030;-66
2022/05/26 08:38:32;;;;;;;2.88;2.33;;;;;;;18.92;51.78;99535.09;2623511;54;20030;-66
2022/05/26 08:41:06;;;;;;;2.55;2.20;;;;;;;19.01;51.93;99530.22;2623925;54;20023;-69
2022/05/26 08:43:44;;;;;;;4.03;2.25;;;;;;;19.07;51.44;99537.34;2625498;39;20438;-67
2022/05/26 08:46:17;;;;;;;2.22;2.00;;;;;;;19.06;51.40;99541.06;2620244;47;20034;-67
2022/05/26 08:48:54;;;;;;;2.28;1.90;;;;;;;18.93;51.09;99543.94;2621429;39;20454;-67
2022/05/26 08:51:31;;;;;;;2.17;1.73;;;;;;;18.81;51.92;99550.06;2620597;54;20030;-66
2022/05/26 08:54:01;;;;;;;4.03;1.90;;;;;;;18.83;52.11;99551.72;2620411;54;20030;-68
2022/05/26 08:56:34;;;;;;;3.05;2.13;;;;;;;18.72;51.92;99543.41;2621345;54;20027;-66
2022/05/26 08:59:12;;;;;;;5.28;3.20;;;;;;;18.67;51.68;99555.84;2624276;54;20551;-65
2022/05/26 09:01:42;;;;;;;1.90;1.70;;;;;;;18.55;52.18;99564.63;2624155;54;20569;-65
2022/05/26 09:04:12;;;;;;;3.72;1.83;;;;;;;18.43;52.50;99566.44;2623727;54;20035;-65
2022/05/26 09:15:05;;;;;;;2.47;1.90;;;;;;;18.70;51.94;99566.94;2620426;39;20443;-66
2022/05/26 09:17:34;;;;;;;3.58;1.80;;;;;;;18.79;51.83;99573.59;2620652;54;20041;-65
2022/05/26 09:20:05;;;;;;;3.17;1.63;;;;;;;18.75;51.58;99571.63;2620838;54;20042;-66
2022/05/26 09:22:44;;;;;;;2.92;1.40;;;;;;;18.71;51.91;99573.94;2620336;54;20034;-65
2022/05/26 09:25:32;;;;;;;4.03;1.58;;;;;;;18.55;51.61;99582.56;2620083;54;20711;-66
2022/05/26 09:28:04;;;;;;;2.47;1.70;;;;;;;18.44;51.70;99575.28;2619980;39;20493;-64
2022/05/26 09:30:36;;;;;;;2.67;2.08;;;;;;;18.55;51.26;99578.00;2620414;54;20046;-66
2022/05/26 09:33:20;;;;;;;2.05;1.52;;;;;;;18.55;50.86;99574.53;2621298;39;20434;-64
2022/05/26 09:35:49;;;;;;;2.42;1.13;;;;;;;18.52;50.81;99574.97;2620718;54;20023;-65
2022/05/26 09:38:21;;;;;;;3.08;1.80;;;;;;;18.58;50.94;99570.59;2624125;54;20034;-67
2022/05/26 09:40:51;;;;;;;4.43;1.75;;;;;;;18.47;51.12;99569.47;2624686;54;20043;-66
2022/05/26 09:43:28;;;;;;;3.42;1.73;;;;;;;18.41;51.94;99579.25;2624600;54;20034;-67
2022/05/26 09:46:02;;;;;;;2.55;1.52;;;;;;;18.41;51.89;99587.25;2620600;54;20030;-65
2022/05/26 09:48:32;;;;;;;;;;;;;;;18.31;51.61;99592.31;2620383;54;20030;-65
2022/05/26 09:51:13;;;;;;;1.70;1.60;;;;;;;18.28;51.91;99590.06;2620468;54;19938;-64
2022/05/26 09:53:45;;;;;;;2.47;2.17;;;;;;;18.29;51.17;99595.22;2620684;54;20031;-64
2022/05/26 09:56:29;;;;;;;6.47;2.25;;;;;;;18.28;51.05;99603.47;2619793;54;20555;-66
2022/05/26 09:59:01;;;;;;;4.38;2.15;;;;;;;18.24;51.07;99608.44;2620780;39;20404;-64
2022/05/26 10:01:44;;;;;;;3.88;2.50;;;;;;;18.35;50.55;99609.56;2620945;54;20041;-65
2022/05/26 10:04:25;;;;;;;3.35;2.00;;;;;;;18.50;50.61;99610.00;2621067;54;20031;-64
2022/05/26 10:07:04;;;;;;;3.53;1.52;;;;;;;18.58;50.17;99611.56;2620918;54;20593;-64
2022/05/26 10:09:40;;;;;;;4.63;1.70;;;;;;;18.65;50.33;99606.09;2621005;54;20038;-66
2022/05/26 10:12:24;;;;;;;3.30;1.73;;;;;;;18.87;49.54;99615.34;2620667;54;20034;-66
2022/05/26 10:15:15;;;;;;;1.70;1.60;;;;;;;18.95;48.84;99614.22;2620355;54;20041;-65
2022/05/26 10:17:59;;;;;;;4.05;2.03;;;;;;;18.98;48.82;99611.06;2620245;54;20034;-65
2022/05/26 10:20:39;;;;;;;3.72;1.98;;;;;;;19.10;48.36;99611.91;2620604;54;20030;-64
2022/05/26 10:23:27;;;;;;;6.07;3.13;;;;;;;19.23;47.23;99616.28;2620152;47;20038;-65
2022/05/26 10:26:07;;;;;;;5.68;1.55;;;;;;;19.23;45.47;99606.38;2619577;47;20561;-66
2022/05/26 10:28:50;;;;;;;3.53;1.33;;;;;;;19.38;44.99;99602.44;2619825;54;20111;-65
2022/05/26 10:31:39;;;;;;;1.27;1.10;;;;;;;19.49;44.46;99607.00;2619943;54;20029;-64
2022/05/26 10:34:24;;;;;;;3.60;1.15;;;;;;;19.39;43.87;99607.56;2618853;47;20026;-64
2022/05/26 10:37:04;;;;;;;2.90;0.90;;;;;;;19.55;44.31;99604.22;2618776;46;20031;-64
2022/05/26 10:39:46;;;;;;;2.63;0.98;;;;;;;19.85;43.44;99603.31;2619691;39;20464;-65
2022/05/26 10:42:30;;;;;;;2.42;1.40;;;;;;;19.94;42.97;99599.22;2619900;39;20423;-65
2022/05/26 10:45:09;;;;;;;1.75;1.35;;;;;;;19.68;43.12;99599.72;2619538;54;20034;-65
2022/05/26 10:47:48;;;;;;;3.33;2.28;;;;;;;19.69;43.42;99593.28;2618891;54;20061;-69
2022/05/26 10:50:27;;;;;;;4.95;3.67;;;;;;;19.88;43.18;99597.50;2618437;54;20037;-67
2022/05/26 10:53:02;;;;;;;2.35;1.15;;;;;;;19.83;43.43;99593.88;2619877;39;20450;-68
2022/05/26 10:55:39;;;;;;;2.55;1.80;;;;;;;19.86;43.16;99593.41;2619687;54;20542;-65
2022/05/26 10:58:16;;;;;;;3.70;1.50;;;;;;;20.00;42.57;99598.31;2620099;54;20039;-67
2022/05/26 11:00:48;;;;;;;2.67;1.75;;;;;;;19.96;41.76;99580.22;2621516;54;20050;-67
2022/05/26 11:03:26;;;;;;;1.45;1.10;;;;;;;20.15;40.67;99586.25;2625842;54;20027;-67
2022/05/26 11:06:04;;;;;;;1.48;1.15;;;;;;;20.30;40.99;99589.28;2625992;54;20028;-67
2022/05/26 11:08:41;;;;;;;4.22;1.20;;;;;;;20.47;40.57;99598.22;2624759;54;20034;-67
2022/05/26 11:11:17;;;;;;;2.97;1.10;;;;;;;20.72;40.65;99597.94;2620340;47;20023;-66
2022/05/26 11:13:55;;;;;;;3.22;1.30;;;;;;;20.91;40.10;99598.56;2620555;54;20091;-67
2022/05/26 11:19:34;;;;;;;1.55;0.93;;;;;;;20.85;38.80;99585.25;2623382;39;20490;-69
2022/05/26 11:22:05;;;;;;;5.75;1.45;;;;;;;20.72;39.43;99581.00;2622133;54;20038;-66
2022/05/26 11:24:35;;;;;;;1.50;1.10;;;;;;;20.62;39.84;99587.00;2620512;54;20026;-66
2022/05/26 11:27:10;;;;;;;2.65;1.15;;;;;;;20.43;39.89;99590.88;2620426;54;20034;-67
2022/05/26 11:29:44;;;;;;;3.20;1.48;;;;;;;20.37;40.98;99581.06;2619970;54;20034;-66
2022/05/26 11:38:04;;;;;;;4.20;1.73;;;;;;;20.56;40.13;99592.50;2619497;39;20433;-66
2022/05/26 11:40:39;;;;;;;5.90;2.15;;;;;;;20.63;39.66;99588.63;2621548;54;20041;-68
2022/05/26 11:43:10;;;;;;;2.63;2.00;;;;;;;20.57;40.34;99578.00;2621145;54;20154;-66
2022/05/26 11:45:51;;;;;;;4.45;1.83;;;;;;;20.46;40.94;99588.53;2620424;54;20034;-67
2022/05/26 11:48:44;;;;;;;1.88;1.55;;;;;;;20.34;41.35;99587.75;2620390;54;20058;-67
2022/05/26 11:51:39;;;;;;;3.92;1.80;;;;;;;20.49;41.12;99592.63;2620570;54;20031;-67
2022/05/26 11:54:09;;;;;;;4.45;2.72;;;;;;;20.65;39.99;99589.19;2621099;54;20034;-67
2022/05/26 11:56:49;;;;;;;3.20;1.40;;;;;;;20.92;39.15;99585.94;2620482;54;20037;-67
2022/05/26 11:59:47;;;;;;;2.45;2.10;;;;;;;21.21;38.73;99576.78;2619778;54;20035;-67
2022/05/26 12:02:34;;;;;;;5.85;3.22;;;;;;;21.49;38.12;99585.88;2620817;54;20038;-67
2022/05/26 12:05:34;;;;;;;3.33;1.77;;;;;;;21.54;37.40;99583.25;2620577;54;20033;-66
2022/05/26 12:08:24;;;;;;;3.83;2.45;;;;;;;21.75;37.23;99577.09;2624473;54;20043;-67
2022/05/26 12:10:56;;;;;;;3.28;1.70;;;;;;;21.85;37.35;99573.75;2624064;47;20030;-67
2022/05/26 12:13:32;;;;;;;2.42;1.40;;;;;;;21.97;37.08;99568.28;2624678;54;20034;-67
2022/05/26 12:16:12;;;;;;;3.45;1.80;;;;;;;22.02;35.98;99569.16;2620687;54;20030;-67
2022/05/26 12:18:48;;;;;;;2.28;1.55;;;;;;;21.97;36.26;99569.09;2620187;54;20098;-67
2022/05/26 12:21:20;;;;;;;2.53;1.33;;;;;;;21.66;36.27;99564.31;2620524;46;20072;-67
2022/05/26 12:23:53;;;;;;;4.22;1.63;;;;;;;21.77;36.70;99566.13;2619849;54;20078;-67
2022/05/26 12:26:29;;;;;;;2.78;1.67;;;;;;;21.75;36.88;99569.03;2620558;54;20031;-67
2022/05/26 12:29:42;;;;;;;2.08;1.30;;;;;;;21.95;36.72;99565.81;2619914;54;20022;-67
2022/05/26 12:32:15;;;;;;;2.35;1.08;;;;;;;22.17;36.48;99565.88;2620409;54;20042;-66
2022/05/26 12:35:03;;;;;;;5.38;1.52;;;;;;;22.27;35.26;99559.00;2620842;39;20418;-66
2022/05/26 12:37:47;;;;;;;2.03;1.48;;;;;;;22.28;35.51;99571.38;2619883;54;20026;-67
2022/05/26 12:40:47;;;;;;;2.80;1.20;;;;;;;22.26;36.18;99550.09;2619607;54;20040;-67
2022/05/26 12:43:48;;;;;;;2.08;1.05;;;;;;;22.28;36.29;99555.22;2620169;54;20026;-67
2022/05/26 12:46:46;;;;;;;5.38;1.70;;;;;;;22.02;36.33;99549.50;2620215;39;20462;-67
2022/05/26 12:49:31;;;;;;;2.40;1.50;;;;;;;21.75;35.53;99560.16;2621051;39;20463;-67